Time;durP1;ratioP1;P1;durP2;ratioP2;P2;SDS_P1;SDS_P2;PMS_P1;PMS_P2;Temp;Humidity;BMP_temperature;BMP_pressure;BME280_temperature;BME280_humidity;BME280_pressure;Samples;Min_cycle;Max_cycle;Signal;HPM_P1;HPM_P2
2021/11/03 00:02:10;;;;;;;2.63;1.93;;;3.20;99.90;2.40;95905.00;;;;5093436;28;20468;-59
2021/11/03 00:05:00;;;;;;;2.57;2.37;;;3.10;99.90;2.40;95901.00;;;;5099637;28;20471;-59
2021/11/03 00:07:49;;;;;;;3.07;2.10;;;3.10;99.90;2.40;95902.00;;;;5088402;28;20425;-63
2021/11/03 00:10:41;;;;;;;2.10;2.00;;;3.00;99.90;2.00;95895.00;;;;5087760;28;20461;-59
2021/11/03 00:13:31;;;;;;;2.60;1.33;;;3.00;99.90;2.00;95898.00;;;;5088367;28;20425;-57
2021/11/03 00:16:20;;;;;;;1.67;1.57;;;2.90;99.90;2.00;95905.00;;;;5088171;28;20421;-62
2021/11/03 00:19:09;;;;;;;1.23;1.13;;;2.80;99.90;2.10;95894.00;;;;5087683;28;20426;-62
2021/11/03 00:21:58;;;;;;;2.50;2.03;;;2.80;99.90;2.40;95906.00;;;;5088755;28;20449;-57
2021/11/03 00:24:47;;;;;;;3.83;2.27;;;2.90;99.90;2.40;95900.00;;;;5094347;28;20452;-57
2021/11/03 00:27:36;;;;;;;2.23;2.13;;;3.00;99.90;2.40;95905.00;;;;5087845;28;20921;-62
2021/11/03 00:30:26;;;;;;;2.47;1.83;;;3.00;99.90;2.40;95913.00;;;;5088155;28;20470;-60
2021/11/03 00:33:16;;;;;;;2.13;1.93;;;3.00;99.90;2.70;95907.00;;;;5088973;28;20441;-56
2021/11/03 00:36:06;;;;;;;4.20;2.70;;;3.10;99.90;2.80;95909.00;;;;5088342;28;20987;-55
2021/11/03 00:38:56;;;;;;;2.93;2.60;;;3.20;99.90;2.70;95895.00;;;;5087992;28;20560;-59
2021/11/03 00:41:44;;;;;;;2.13;1.83;;;3.20;99.90;2.20;95903.00;;;;5087633;28;20457;-58
2021/11/03 00:44:33;;;;;;;2.50;1.43;;;3.10;99.90;1.90;95885.00;;;;5087251;28;20422;-61
2021/11/03 00:47:23;;;;;;;1.90;1.80;;;2.90;99.90;1.90;95888.00;;;;5088622;28;20426;-62
2021/11/03 00:50:13;;;;;;;2.50;2.30;;;2.80;99.90;2.10;95891.00;;;;5093237;28;20822;-59
2021/11/03 00:53:02;;;;;;;2.80;2.13;;;2.80;99.90;2.10;95900.00;;;;5089131;28;20971;-57
2021/11/03 00:55:50;;;;;;;2.90;2.40;;;2.70;99.90;2.20;95895.00;;;;5087814;28;20426;-62
2021/11/03 00:58:40;;;;;;;3.20;2.30;;;2.80;99.90;2.30;95891.00;;;;5087563;28;20432;-58
2021/11/03 01:01:29;;;;;;;4.57;2.63;;;2.80;99.90;2.40;95894.00;;;;5094916;28;20452;-63
2021/11/03 01:04:19;;;;;;;3.27;2.23;;;2.90;99.90;2.40;95901.00;;;;5089337;28;20855;-61
2021/11/03 01:07:08;;;;;;;3.93;3.20;;;2.90;99.90;2.40;95905.00;;;;5088721;28;20430;-57
2021/11/03 01:09:57;;;;;;;6.70;2.67;;;3.00;99.90;2.40;95914.00;;;;5087945;28;20990;-58
2021/11/03 01:12:46;;;;;;;3.00;2.47;;;2.90;99.90;2.50;95901.00;;;;5086818;28;20445;-58
2021/11/03 01:15:36;;;;;;;3.53;2.60;;;3.00;99.90;2.50;95890.00;;;;5087158;28;21458;-58
2021/11/03 01:18:26;;;;;;;5.23;2.63;;;3.00;99.90;2.10;95892.00;;;;5087892;28;20422;-59
2021/11/03 01:21:16;;;;;;;3.93;2.10;;;2.90;99.90;2.10;95892.00;;;;5086027;28;20438;-60
2021/11/03 01:24:06;;;;;;;4.77;2.43;;;2.80;99.90;2.00;95885.00;;;;5087441;28;20424;-59
2021/11/03 01:26:55;;;;;;;2.70;2.27;;;2.80;99.90;2.00;95893.00;;;;5107289;27;20437;-63
2021/11/03 01:29:44;;;;;;;4.30;2.87;;;2.70;99.90;2.10;95898.00;;;;5085492;28;20430;-58
2021/11/03 01:32:33;;;;;;;6.43;3.00;;;2.60;99.90;2.20;95898.00;;;;5087128;28;20492;-61
2021/11/03 01:35:23;;;;;;;6.13;3.57;;;2.70;99.90;2.20;95899.00;;;;5087322;28;20425;-59
2021/11/03 01:38:14;;;;;;;1.73;1.63;;;2.70;99.90;2.00;95896.00;;;;5088016;28;20967;-57
2021/11/03 01:41:03;;;;;;;3.30;1.77;;;2.70;99.90;1.90;95891.00;;;;5085331;28;20430;-58
2021/11/03 01:44:01;;;;;;;1.73;1.63;;;2.60;99.90;2.00;95882.00;;;;5087029;28;20460;-58
2021/11/03 01:46:56;;;;;;;2.97;2.07;;;2.60;99.90;2.00;95890.00;;;;5085363;28;20961;-58
2021/11/03 01:49:45;;;;;;;2.50;2.00;;;2.60;99.90;2.00;95886.00;;;;5085726;28;20425;-59
2021/11/03 01:52:34;;;;;;;2.40;2.20;;;2.60;99.90;2.00;95873.00;;;;5084916;28;20387;-62
2021/11/03 01:55:27;;;;;;;3.67;2.00;;;2.60;99.90;2.10;95878.00;;;;5086271;28;20230;-57
2021/11/03 01:58:23;;;;;;;3.07;2.40;;;2.60;99.90;2.00;95874.00;;;;5086074;28;20430;-62
2021/11/03 02:01:13;;;;;;;1.70;1.60;;;2.70;99.90;1.70;95880.00;;;;5088596;28;21000;-61
2021/11/03 02:04:03;;;;;;;2.10;1.87;;;2.60;99.90;1.60;95877.00;;;;5098460;28;20793;-58
2021/11/03 02:06:53;;;;;;;2.70;1.67;;;2.50;99.90;1.60;95869.00;;;;5097186;27;20956;-59
2021/11/03 02:09:43;;;;;;;2.40;1.80;;;2.40;99.90;1.40;95858.00;;;;5085675;28;21163;-61
2021/11/03 02:12:33;;;;;;;2.33;1.87;;;2.30;99.90;1.60;95866.00;;;;5086998;28;20444;-61
2021/11/03 02:15:22;;;;;;;3.20;2.53;;;2.30;99.90;1.60;95865.00;;;;5086701;28;20432;-60
2021/11/03 02:18:16;;;;;;;2.37;1.83;;;2.30;99.90;1.70;95857.00;;;;5085978;28;20426;-60
2021/11/03 02:21:07;;;;;;;3.77;1.80;;;2.20;99.90;1.70;95860.00;;;;5084871;28;20767;-58
2021/11/03 02:24:05;;;;;;;3.00;2.30;;;2.30;99.90;1.80;95861.00;;;;5086757;28;20430;-62
2021/11/03 02:26:58;;;;;;;2.50;2.13;;;2.30;99.90;2.00;95855.00;;;;5086636;28;20414;-61
2021/11/03 02:29:47;;;;;;;2.47;2.20;;;2.40;99.90;2.10;95860.00;;;;5085708;28;20429;-62
2021/11/03 02:32:37;;;;;;;4.60;2.20;;;2.40;99.90;1.60;95859.00;;;;5084442;28;20453;-63
2021/11/03 02:35:26;;;;;;;1.70;1.60;;;2.40;99.90;1.60;95856.00;;;;5086590;28;20437;-62
2021/11/03 02:38:27;;;;;;;2.33;2.07;;;2.40;99.90;1.50;95853.00;;;;5085725;28;20976;-59
2021/11/03 02:41:21;;;;;;;2.87;1.80;;;2.30;99.90;1.40;95850.00;;;;5083964;28;20987;-61
2021/11/03 02:44:16;;;;;;;3.10;2.53;;;2.20;99.90;1.30;95852.00;;;;5097129;28;20431;-63
2021/11/03 02:47:07;;;;;;;2.83;2.23;;;2.10;99.90;1.30;95856.00;;;;5097098;28;20421;-60
2021/11/03 02:49:55;;;;;;;2.50;2.30;;;2.10;99.90;1.40;95857.00;;;;5083936;28;20417;-62
2021/11/03 02:52:44;;;;;;;2.37;2.03;;;2.10;99.90;1.20;95849.00;;;;5085297;28;20816;-61
2021/11/03 02:55:33;;;;;;;2.33;2.10;;;2.10;99.90;1.00;95849.00;;;;5085157;28;20418;-60
2021/11/03 02:58:23;;;;;;;2.77;2.50;;;1.90;99.90;0.90;95860.00;;;;5084929;28;20441;-61
2021/11/03 03:01:22;;;;;;;6.33;3.07;;;1.80;99.90;1.00;95856.00;;;;5084362;28;20975;-60
2021/11/03 03:04:13;;;;;;;2.70;2.07;;;1.80;99.90;1.00;95847.00;;;;5085720;28;20491;-62
2021/11/03 03:07:02;;;;;;;2.03;1.90;;;1.80;99.90;1.00;95845.00;;;;5085247;28;20793;-61
2021/11/03 03:09:51;;;;;;;2.13;1.93;;;1.80;99.90;1.10;95842.00;;;;5085956;28;20430;-62
2021/11/03 03:12:40;;;;;;;1.63;1.53;;;1.80;99.90;1.10;95844.00;;;;5084935;28;20477;-62
2021/11/03 03:15:29;;;;;;;2.40;2.17;;;1.80;99.90;1.30;95836.00;;;;5085595;28;20448;-58
2021/11/03 03:18:19;;;;;;;2.10;1.90;;;1.90;99.90;1.40;95842.00;;;;5086311;28;20414;-58
2021/11/03 03:21:08;;;;;;;3.73;2.27;;;2.00;99.90;1.60;95849.00;;;;5088584;28;20789;-55
2021/11/03 03:24:01;;;;;;;3.23;2.93;;;2.10;99.90;1.70;95839.00;;;;5088279;28;20429;-62
2021/11/03 03:26:51;;;;;;;4.40;2.73;;;2.20;99.90;1.80;95853.00;;;;5095837;28;20433;-58
2021/11/03 03:29:40;;;;;;;4.33;3.43;;;2.20;99.90;1.70;95860.00;;;;5089318;28;20803;-59
2021/11/03 03:32:29;;;;;;;2.70;2.40;;;2.30;99.90;1.20;95848.00;;;;5089465;28;20465;-57
2021/11/03 03:35:19;;;;;;;2.23;1.97;;;2.20;99.90;1.00;95846.00;;;;5090141;28;20432;-60
2021/11/03 03:38:09;;;;;;;2.67;2.33;;;2.10;99.90;1.00;95849.00;;;;5089941;28;20807;-59
2021/11/03 03:40:58;;;;;;;2.60;2.40;;;2.00;99.90;1.20;95841.00;;;;5089478;28;20422;-61
2021/11/03 03:43:47;;;;;;;1.67;1.47;;;1.90;99.90;1.00;95849.00;;;;5102981;28;20428;-61
2021/11/03 03:46:35;;;;;;;2.57;2.10;;;1.90;99.90;1.00;95844.00;;;;5107697;28;20802;-58
2021/11/03 03:49:25;;;;;;;3.27;2.20;;;1.80;99.90;1.10;95841.00;;;;5090919;27;20423;-58
2021/11/03 03:52:15;;;;;;;2.13;1.70;;;1.80;99.90;1.30;95851.00;;;;5107316;28;20482;-61
2021/11/03 03:55:08;;;;;;;2.83;2.63;;;1.80;99.90;1.30;95837.00;;;;5125220;27;20805;-59
2021/11/03 03:57:57;;;;;;;3.73;2.77;;;1.90;99.90;1.30;95847.00;;;;5113243;27;20801;-60
2021/11/03 04:00:47;;;;;;;3.67;3.10;;;1.90;99.90;1.30;95843.00;;;;5125006;27;20431;-61
2021/11/03 04:03:36;;;;;;;5.33;2.10;;;2.00;99.90;1.00;95848.00;;;;5108984;28;20405;-60
2021/11/03 04:06:25;;;;;;;2.20;2.00;;;1.90;99.90;1.10;95847.00;;;;5107630;28;20829;-56
2021/11/03 04:09:15;;;;;;;2.93;2.23;;;1.90;99.90;0.80;95839.00;;;;5109582;27;20425;-62
2021/11/03 04:12:06;;;;;;;2.93;2.03;;;1.80;99.90;1.00;95835.00;;;;5109206;28;20818;-57
2021/11/03 04:14:55;;;;;;;2.63;2.20;;;1.70;99.90;0.90;95830.00;;;;5108765;28;20413;-58
2021/11/03 04:17:44;;;;;;;1.93;1.60;;;1.70;99.90;1.10;95846.00;;;;5118675;27;20428;-57
2021/11/03 04:20:33;;;;;;;3.27;1.97;;;1.70;99.90;0.90;95856.00;;;;5122188;27;20423;-60
2021/11/03 04:23:22;;;;;;;2.70;1.90;;;1.70;99.90;0.90;95856.00;;;;5107738;28;20449;-61
2021/11/03 04:26:24;;;;;;;2.67;1.80;;;1.70;99.90;1.00;95850.00;;;;5120353;27;20431;-59
2021/11/03 04:29:13;;;;;;;2.70;2.20;;;1.70;99.90;0.80;95854.00;;;;5107507;28;20416;-61
2021/11/03 04:32:02;;;;;;;2.00;1.60;;;1.70;99.90;0.90;95858.00;;;;5108237;27;20475;-60
2021/11/03 04:34:51;;;;;;;3.00;2.60;;;1.60;99.90;1.30;95846.00;;;;5107828;28;20824;-59
2021/11/03 04:37:40;;;;;;;4.07;2.97;;;1.70;99.90;1.40;95852.00;;;;5109302;28;20424;-58
2021/11/03 04:40:31;;;;;;;1.83;1.73;;;1.90;99.90;1.00;95854.00;;;;5108159;28;20803;-60
2021/11/03 04:43:21;;;;;;;2.40;2.20;;;1.90;99.90;0.80;95856.00;;;;5107618;28;20428;-58
2021/11/03 04:46:12;;;;;;;2.40;2.13;;;1.80;99.90;0.60;95853.00;;;;5106725;28;20433;-60
2021/11/03 04:49:00;;;;;;;3.03;2.60;;;1.60;99.90;0.60;95841.00;;;;5106843;28;20416;-60
2021/11/03 04:51:49;;;;;;;3.83;2.90;;;1.60;99.90;0.80;95838.00;;;;5120397;27;20468;-61
2021/11/03 04:54:39;;;;;;;4.83;2.70;;;1.50;99.90;0.90;95837.00;;;;5107482;28;20818;-57
2021/11/03 04:57:28;;;;;;;2.07;1.87;;;1.60;99.90;1.10;95843.00;;;;5107383;28;20828;-59
2021/11/03 05:00:23;;;;;;;3.43;2.43;;;1.60;99.90;1.30;95841.00;;;;5120086;27;20813;-61
2021/11/03 05:03:12;;;;;;;2.57;2.37;;;1.70;99.90;1.40;95833.00;;;;5121000;27;20462;-62
2021/11/03 05:06:04;;;;;;;5.17;2.20;;;1.80;99.90;1.40;95842.00;;;;5119994;27;20421;-59
2021/11/03 05:08:55;;;;;;;3.83;2.70;;;1.90;99.90;1.30;95834.00;;;;5108570;27;20440;-62
2021/11/03 05:11:44;;;;;;;2.30;2.07;;;1.90;99.90;1.50;95837.00;;;;5121240;27;20485;-63
2021/11/03 05:14:33;;;;;;;3.87;2.57;;;2.00;99.90;1.60;95837.00;;;;5112681;27;20950;-59
2021/11/03 05:17:23;;;;;;;2.90;2.40;;;2.00;99.90;1.20;95829.00;;;;5115883;27;20432;-59
2021/11/03 05:20:15;;;;;;;6.43;4.93;;;2.00;99.90;1.10;95824.00;;;;5117800;27;20428;-64
2021/11/03 05:23:04;;;;;;;4.27;3.73;;;2.00;99.90;1.20;95837.00;;;;5118712;27;20805;-58
2021/11/03 05:25:53;;;;;;;3.17;2.70;;;2.00;99.90;1.50;95830.00;;;;5107406;27;20974;-63
2021/11/03 05:28:46;;;;;;;3.10;2.70;;;2.00;99.90;1.30;95830.00;;;;5139232;27;20423;-59
2021/11/03 05:31:35;;;;;;;2.33;2.07;;;2.00;99.90;1.10;95824.00;;;;5114106;27;20445;-61
2021/11/03 05:34:26;;;;;;;2.03;1.87;;;1.90;99.90;1.00;95830.00;;;;5131758;27;20425;-58
2021/11/03 05:37:16;;;;;;;2.30;2.10;;;1.80;99.90;0.80;95833.00;;;;5105536;28;20438;-59
2021/11/03 05:40:08;;;;;;;2.73;2.03;;;1.80;99.90;1.00;95831.00;;;;5118422;27;20419;-60
2021/11/03 05:42:58;;;;;;;2.27;2.07;;;1.70;99.90;1.20;95828.00;;;;5135014;27;20824;-60
2021/11/03 05:45:48;;;;;;;2.93;2.40;;;1.80;99.90;1.00;95829.00;;;;5107355;27;20428;-57
2021/11/03 05:48:43;;;;;;;2.80;2.47;;;1.80;99.90;1.10;95836.00;;;;5129121;27;20453;-61
2021/11/03 05:51:34;;;;;;;3.07;2.10;;;1.70;99.90;1.00;95833.00;;;;5116958;27;20823;-56
2021/11/03 05:54:26;;;;;;;3.83;2.23;;;1.70;99.90;1.30;95828.00;;;;5106107;28;20427;-60
2021/11/03 05:57:24;;;;;;;2.97;2.63;;;1.70;99.90;1.50;95827.00;;;;5106346;28;20421;-62
2021/11/03 06:00:20;;;;;;;3.63;2.70;;;1.80;99.90;1.60;95826.00;;;;5105953;28;20425;-58
2021/11/03 06:03:09;;;;;;;3.20;2.17;;;1.90;99.90;1.40;95812.00;;;;5105398;28;20806;-61
2021/11/03 06:05:58;;;;;;;2.80;2.37;;;2.00;99.90;1.10;95816.00;;;;5105255;28;20449;-58
2021/11/03 06:08:48;;;;;;;2.47;2.27;;;2.00;99.90;1.10;95799.00;;;;5105960;28;20428;-58
2021/11/03 06:11:40;;;;;;;2.53;2.03;;;2.00;99.90;1.00;95801.00;;;;5105611;28;20662;-63
2021/11/03 06:14:29;;;;;;;2.40;2.20;;;1.90;99.90;1.10;95809.00;;;;5127785;27;20879;-59
2021/11/03 06:17:18;;;;;;;2.53;2.13;;;1.90;99.90;0.90;95825.00;;;;5119000;27;20428;-59
2021/11/03 06:20:09;;;;;;;2.83;2.50;;;1.80;99.90;1.20;95834.00;;;;5090176;27;20460;-63
2021/11/03 06:22:58;;;;;;;3.80;2.43;;;1.90;99.90;1.10;95822.00;;;;5097770;28;20452;-58
2021/11/03 06:25:48;;;;;;;1.93;1.73;;;1.90;99.90;1.30;95827.00;;;;5093779;28;20434;-60
2021/11/03 06:28:37;;;;;;;1.90;1.77;;;1.90;99.90;1.70;95833.00;;;;5088103;28;20436;-59
2021/11/03 06:31:26;;;;;;;5.17;2.93;;;2.00;99.90;2.10;95843.00;;;;5087195;28;20441;-57
2021/11/03 06:34:15;;;;;;;3.70;3.20;;;2.20;99.90;2.60;95848.00;;;;5096621;27;20522;-58
2021/11/03 06:37:05;;;;;;;2.07;1.90;;;2.40;99.90;2.20;95842.00;;;;5091562;28;20433;-64
2021/11/03 06:39:54;;;;;;;2.13;1.93;;;2.60;99.90;2.10;95849.00;;;;5099857;27;21399;-60
2021/11/03 06:42:44;;;;;;;2.73;2.03;;;2.60;99.90;1.90;95840.00;;;;5088580;28;20454;-60
2021/11/03 06:45:33;;;;;;;2.40;2.07;;;2.60;99.90;2.00;95838.00;;;;5095894;28;20440;-62
2021/11/03 06:48:22;;;;;;;3.03;2.10;;;2.60;99.90;1.90;95840.00;;;;5100404;27;20425;-59
2021/11/03 06:51:11;;;;;;;1.93;1.67;;;2.60;99.90;2.10;95843.00;;;;5096952;28;20437;-59
2021/11/03 06:54:00;;;;;;;2.77;2.10;;;2.60;99.90;2.20;95854.00;;;;5099464;28;20468;-58
2021/11/03 06:56:50;;;;;;;2.47;1.93;;;2.60;99.90;2.50;95855.00;;;;5095229;28;20426;-60
2021/11/03 06:59:46;;;;;;;3.93;2.67;;;2.70;99.90;2.90;95860.00;;;;5085716;28;20417;-61
2021/11/03 07:02:35;;;;;;;2.77;2.50;;;2.80;99.90;2.90;95858.00;;;;5083188;28;20473;-58
2021/11/03 07:05:26;;;;;;;2.20;1.80;;;3.00;99.90;2.40;95852.00;;;;5089427;28;20958;-60
2021/11/03 07:08:17;;;;;;;2.03;1.83;;;3.00;99.90;2.30;95863.00;;;;5085550;28;20432;-61
2021/11/03 07:11:05;;;;;;;2.17;1.70;;;3.00;99.90;2.40;95866.00;;;;5097248;28;20425;-61
2021/11/03 07:13:55;;;;;;;2.60;1.97;;;3.00;99.90;2.40;95856.00;;;;5091731;28;20464;-58
2021/11/03 07:16:45;;;;;;;2.30;2.10;;;3.00;99.90;2.30;95851.00;;;;5089242;28;20432;-61
2021/11/03 07:19:34;;;;;;;2.63;2.40;;;3.00;99.90;2.10;95849.00;;;;5094100;28;20473;-58
2021/11/03 07:22:22;;;;;;;4.03;3.27;;;2.90;99.90;2.20;95839.00;;;;5097457;28;20456;-56
2021/11/03 07:25:17;;;;;;;3.43;2.37;;;2.90;99.90;2.40;95840.00;;;;5101032;28;20409;-56
2021/11/03 07:28:07;;;;;;;2.50;2.23;;;2.90;99.90;2.80;95848.00;;;;5100060;28;20935;-57
2021/11/03 07:30:56;;;;;;;2.50;2.30;;;3.00;99.90;2.90;95847.00;;;;5095243;28;20417;-62
2021/11/03 07:33:46;;;;;;;3.03;2.03;;;3.20;99.90;2.70;95850.00;;;;5086831;28;21007;-57
2021/11/03 07:36:36;;;;;;;2.20;2.00;;;3.30;99.90;2.40;95847.00;;;;5094555;28;20534;-57
2021/11/03 07:39:24;;;;;;;2.43;2.23;;;3.20;99.90;2.50;95835.00;;;;5081916;28;20806;-59
2021/11/03 07:42:13;;;;;;;6.00;2.10;;;3.20;99.90;2.70;95834.00;;;;5093625;28;20433;-60
2021/11/03 07:45:03;;;;;;;2.27;1.90;;;3.30;99.90;3.00;95831.00;;;;5102666;28;20437;-62
2021/11/03 07:47:52;;;;;;;2.93;1.60;;;3.40;99.90;3.10;95831.00;;;;5100938;28;20429;-58
2021/11/03 07:50:45;;;;;;;3.53;2.03;;;3.50;99.90;3.20;95828.00;;;;5102127;28;20427;-61
2021/11/03 07:53:35;;;;;;;2.43;2.17;;;3.70;99.90;3.10;95838.00;;;;5106146;28;20461;-58
2021/11/03 07:56:25;;;;;;;2.27;1.93;;;3.80;99.90;3.30;95845.00;;;;5104798;28;20416;-57
2021/11/03 07:59:18;;;;;;;2.03;1.83;;;3.80;99.90;3.40;95860.00;;;;5105782;28;20413;-59
2021/11/03 08:02:07;;;;;;;5.37;2.57;;;3.90;99.90;3.50;95857.00;;;;5094159;28;20467;-63
2021/11/03 08:04:56;;;;;;;3.60;2.60;;;4.00;99.90;3.30;95864.00;;;;5089681;28;20424;-59
2021/11/03 08:07:46;;;;;;;2.93;2.00;;;4.00;99.90;3.30;95853.00;;;;5106068;28;20425;-62
2021/11/03 08:10:36;;;;;;;3.63;2.17;;;3.90;99.90;3.40;95859.00;;;;5108363;28;20421;-59
2021/11/03 08:13:48;;;;;;;1.60;1.50;;;3.90;99.90;3.20;95845.00;;;;5107951;28;20464;-58
2021/11/03 08:16:47;;;;;;;2.63;1.77;;;3.90;99.90;3.10;95834.00;;;;5102276;28;20439;-63
2021/11/03 08:19:45;;;;;;;3.43;1.87;;;3.90;99.90;3.40;95849.00;;;;5093608;28;20804;-58
2021/11/03 08:22:34;;;;;;;2.67;2.47;;;3.90;99.90;3.50;95856.00;;;;5080576;28;20444;-62
2021/11/03 08:25:25;;;;;;;3.03;2.73;;;4.00;99.90;3.60;95855.00;;;;5102906;28;20427;-59
2021/11/03 08:28:14;;;;;;;2.60;2.40;;;4.00;99.90;3.90;95858.00;;;;5107279;28;20432;-61
2021/11/03 08:31:04;;;;;;;3.03;2.23;;;4.10;99.90;3.90;95845.00;;;;5108136;28;20424;-63
2021/11/03 08:33:53;;;;;;;2.70;2.03;;;4.20;99.90;3.90;95849.00;;;;5107814;28;20237;-63
2021/11/03 08:36:42;;;;;;;3.53;2.67;;;4.30;99.90;4.00;95845.00;;;;5098610;28;20204;-61
2021/11/03 08:39:31;;;;;;;2.90;2.50;;;4.40;99.90;4.20;95847.00;;;;5095625;28;20421;-60
2021/11/03 08:42:23;;;;;;;1.93;1.80;;;4.40;99.90;4.00;95843.00;;;;5088125;28;20227;-60
2021/11/03 08:45:13;;;;;;;1.73;1.63;;;4.50;99.90;4.00;95841.00;;;;5096484;28;20207;-63
2021/11/03 08:48:06;;;;;;;3.30;2.43;;;4.50;99.90;4.00;95856.00;;;;5088613;28;20989;-57
2021/11/03 08:50:56;;;;;;;2.40;1.87;;;4.60;99.90;4.10;95859.00;;;;5086525;28;20778;-58
2021/11/03 08:53:46;;;;;;;5.23;2.73;;;4.60;99.90;4.30;95855.00;;;;5098186;28;20230;-59
2021/11/03 08:56:36;;;;;;;3.47;2.60;;;4.70;99.90;4.50;95860.00;;;;5090849;28;20203;-62
2021/11/03 08:59:27;;;;;;;3.03;2.07;;;4.70;99.90;4.60;95858.00;;;;5098399;28;20210;-59
2021/11/03 09:02:16;;;;;;;2.57;1.90;;;4.80;99.90;4.50;95866.00;;;;5118217;27;20597;-59
2021/11/03 09:05:06;;;;;;;4.93;2.23;;;4.90;99.90;4.20;95862.00;;;;5119341;27;20610;-62
2021/11/03 09:07:55;;;;;;;1.97;1.80;;;4.90;99.90;4.40;95866.00;;;;5093938;28;20430;-62
2021/11/03 09:10:48;;;;;;;2.60;2.40;;;4.90;99.90;4.60;95848.00;;;;5095929;28;20206;-63
2021/11/03 09:13:37;;;;;;;2.97;2.00;;;4.90;99.90;4.90;95860.00;;;;5087687;28;20206;-62
2021/11/03 09:16:28;;;;;;;3.33;2.60;;;5.00;99.90;5.10;95848.00;;;;5098925;28;20211;-60
2021/11/03 09:19:17;;;;;;;7.33;2.57;;;5.20;99.90;5.30;95844.00;;;;5085811;28;20196;-62
2021/11/03 09:22:06;;;;;;;3.20;2.47;;;5.30;99.90;5.40;95846.00;;;;5086623;28;20218;-61
2021/11/03 09:24:55;;;;;;;1.93;1.70;;;5.40;99.90;5.10;95850.00;;;;5094481;28;20191;-62
2021/11/03 09:27:45;;;;;;;2.53;2.07;;;5.60;99.90;5.10;95840.00;;;;5088480;28;20207;-64
2021/11/03 09:30:36;;;;;;;3.60;2.97;;;5.60;99.90;5.20;95836.00;;;;5085831;28;20678;-56
2021/11/03 09:33:27;;;;;;;3.40;2.50;;;5.70;99.90;5.50;95826.00;;;;5076728;28;20198;-59
2021/11/03 09:36:21;;;;;;;4.53;2.27;;;5.80;99.90;5.70;95817.00;;;;5086186;28;20203;-61
2021/11/03 09:39:11;;;;;;;3.50;3.20;;;5.90;99.90;6.20;95832.00;;;;5095267;28;20229;-61
2021/11/03 09:42:00;;;;;;;2.47;2.27;;;6.10;99.90;6.10;95828.00;;;;5088005;28;20292;-59
2021/11/03 09:44:51;;;;;;;14.17;4.13;;;6.20;99.90;6.50;95821.00;;;;5087760;28;20213;-59
2021/11/03 09:48:06;;;;;;;4.00;3.57;;;6.50;99.90;7.10;95829.00;;;;5086282;28;20219;-63
2021/11/03 09:51:02;;;;;;;6.67;3.80;;;6.80;99.90;7.30;95820.00;;;;5082854;28;20592;-58
2021/11/03 09:54:20;;;;;;;9.70;4.70;;;7.10;99.90;7.50;95837.00;;;;5088219;28;20215;-59
2021/11/03 09:57:21;;;;;;;5.53;4.47;;;7.40;99.90;8.10;95829.00;;;;5086055;28;20213;-60
2021/11/03 10:00:24;;;;;;;6.77;3.93;;;7.60;99.90;8.20;95807.00;;;;5087449;28;20192;-61
2021/11/03 10:03:33;;;;;;;5.77;4.93;;;7.90;99.90;8.40;95817.00;;;;5086835;28;20233;-62
2021/11/03 10:06:31;;;;;;;7.27;4.83;;;8.20;99.90;8.50;95818.00;;;;5088489;28;20194;-58
2021/11/03 10:09:22;;;;;;;6.17;4.40;;;8.40;99.90;8.70;95826.00;;;;5100399;28;20198;-58
2021/11/03 10:12:14;;;;;;;6.67;4.53;;;8.60;99.90;8.90;95812.00;;;;5095699;28;20226;-62
2021/11/03 10:15:04;;;;;;;4.83;4.00;;;8.70;99.90;8.90;95809.00;;;;5086183;28;20231;-60
2021/11/03 10:18:15;;;;;;;6.33;4.00;;;8.90;99.90;8.40;95810.00;;;;5086701;28;20236;-61
2021/11/03 10:21:18;;;;;;;6.83;5.13;;;8.90;99.90;8.30;95802.00;;;;5086863;28;20634;-58
2021/11/03 10:24:29;;;;;;;7.00;4.47;;;8.80;99.90;8.70;95786.00;;;;5086817;28;20206;-62
2021/11/03 10:27:22;;;;;;;8.53;4.20;;;8.90;99.90;10.00;95817.00;;;;5115766;27;20193;-59
2021/11/03 10:30:30;;;;;;;4.50;3.40;;;9.20;99.90;9.00;95813.00;;;;5124848;27;20558;-60
2021/11/03 10:33:25;;;;;;;6.83;4.10;;;9.40;99.90;9.20;95791.00;;;;5127191;27;20201;-57
2021/11/03 10:36:18;;;;;;;4.93;4.33;;;9.50;99.90;10.00;95789.00;;;;5111125;27;20210;-59
2021/11/03 10:39:17;;;;;;;6.93;4.47;;;9.70;99.90;10.30;95800.00;;;;5103180;28;20220;-57
2021/11/03 10:42:13;;;;;;;5.53;3.70;;;9.90;99.90;11.10;95791.00;;;;5100123;27;20693;-58
2021/11/03 10:45:21;;;;;;;5.47;3.93;;;10.30;99.90;11.00;95761.00;;;;5095377;27;20205;-60
2021/11/03 10:48:20;;;;;;;5.47;3.50;;;10.70;99.90;11.40;95797.00;;;;5085207;28;20210;-58
2021/11/03 10:51:19;;;;;;;5.67;3.23;;;11.10;99.90;11.20;95784.00;;;;5086175;28;20203;-61
2021/11/03 10:54:15;;;;;;;3.47;3.13;;;11.30;99.90;11.20;95752.00;;;;5084627;28;21033;-61
2021/11/03 10:57:23;;;;;;;4.13;3.67;;;11.50;99.90;11.40;95737.00;;;;5086002;28;21169;-62
2021/11/03 11:00:23;;;;;;;4.57;3.90;;;11.50;99.90;13.00;95768.00;;;;5085572;28;20191;-62
2021/11/03 11:03:18;;;;;;;7.77;4.43;;;12.00;99.90;14.20;95755.00;;;;5093855;28;20230;-59
2021/11/03 11:06:17;;;;;;;7.20;4.17;;;12.80;99.90;14.80;95786.00;;;;5098627;28;20214;-62
2021/11/03 11:09:23;;;;;;;9.40;4.10;;;13.60;99.90;14.10;95763.00;;;;5099217;28;20201;-60
2021/11/03 11:12:22;;;;;;;7.17;4.63;;;14.10;99.90;15.20;95753.00;;;;5102768;28;20229;-63
2021/11/03 11:15:23;;;;;;;7.13;4.77;;;14.50;99.90;15.50;95776.00;;;;5105316;28;20229;-59
2021/11/03 11:18:37;;;;;;;6.83;5.10;;;15.00;99.90;14.90;95762.00;;;;5103040;28;20217;-57
2021/11/03 11:21:46;;;;;;;9.27;6.00;;;15.20;99.90;15.00;95744.00;;;;5091397;28;20222;-63
2021/11/03 11:24:46;;;;;;;12.43;5.83;;;15.30;99.90;14.90;95771.00;;;;5090219;28;20213;-61
2021/11/03 11:27:42;;;;;;;10.93;5.53;;;15.50;99.90;14.70;95709.00;;;;5101467;28;20215;-62
2021/11/03 11:30:42;;;;;;;6.97;5.17;;;15.50;99.90;14.60;95726.00;;;;5100319;28;20562;-63
2021/11/03 11:33:43;;;;;;;5.97;5.07;;;15.80;99.90;15.40;95728.00;;;;5104511;28;20202;-63
2021/11/03 11:36:39;;;;;;;5.63;4.57;;;15.80;99.90;16.70;95738.00;;;;5091852;28;20222;-62
2021/11/03 11:39:37;;;;;;;8.33;4.97;;;16.30;99.90;17.40;95736.00;;;;5093994;28;20207;-63
2021/11/03 11:42:38;;;;;;;6.00;4.87;;;16.80;99.90;17.80;95721.00;;;;5096143;27;20588;-63
2021/11/03 11:45:33;;;;;;;8.03;5.43;;;17.40;99.90;18.50;95711.00;;;;5100045;27;20343;-60
2021/11/03 11:48:30;;;;;;;6.40;4.67;;;18.10;99.90;18.40;95716.00;;;;5108428;28;20573;-61
2021/11/03 11:51:27;;;;;;;9.10;5.90;;;18.80;96.20;17.40;95710.00;;;;5087136;28;20234;-61
2021/11/03 11:54:33;;;;;;;6.13;5.50;;;19.10;92.60;18.40;95715.00;;;;5106874;27;20196;-63
2021/11/03 11:57:28;;;;;;;7.97;5.07;;;19.00;93.20;17.70;95717.00;;;;5094050;28;20208;-62
2021/11/03 12:00:23;;;;;;;7.73;5.07;;;19.00;92.00;17.80;95702.00;;;;5103877;28;20210;-63
2021/11/03 12:03:27;;;;;;;7.63;5.60;;;18.80;90.70;18.80;95701.00;;;;5094617;28;20224;-62
2021/11/03 12:06:39;;;;;;;6.90;5.87;;;18.90;91.50;19.90;95716.00;;;;5091588;28;20209;-61
2021/11/03 12:09:35;;;;;;;9.53;7.40;;;19.40;91.40;19.20;95704.00;;;;5097082;28;20212;-62
2021/11/03 12:12:24;;;;;;;10.00;5.27;;;19.50;87.90;18.50;95709.00;;;;5097420;28;20594;-62
2021/11/03 12:16:04;;;;;;;7.87;6.23;;;19.80;83.50;19.30;95694.00;;;;5088555;28;20226;-63
2021/11/03 12:18:57;;;;;;;9.70;6.00;;;19.70;84.40;19.60;95687.00;;;;5100881;28;20595;-63
2021/11/03 12:22:02;;;;;;;7.23;6.30;;;19.90;84.60;18.80;95696.00;;;;5101225;28;20233;-63
2021/11/03 12:24:53;;;;;;;7.73;5.77;;;20.20;82.60;18.40;95710.00;;;;5090138;28;20211;-64
2021/11/03 12:27:43;;;;;;;7.47;5.60;;;19.90;80.90;16.00;95685.00;;;;5100993;28;20631;-63
2021/11/03 12:30:39;;;;;;;8.03;6.87;;;19.00;80.60;15.80;95676.00;;;;5102036;28;20210;-64
2021/11/03 12:33:30;;;;;;;7.37;5.47;;;18.20;83.90;16.90;95685.00;;;;5097721;28;20210;-63
2021/11/03 12:36:23;;;;;;;8.60;5.47;;;17.80;87.80;17.00;95686.00;;;;5089209;28;20693;-64
2021/11/03 12:39:14;;;;;;;9.70;6.23;;;17.60;89.50;17.20;95684.00;;;;5091178;28;20210;-63
2021/11/03 12:42:23;;;;;;;7.50;5.10;;;17.40;90.60;17.30;95676.00;;;;5090765;27;20227;-63
2021/11/03 12:45:19;;;;;;;8.03;5.50;;;17.40;90.50;17.50;95655.00;;;;5111925;27;20198;-62
2021/11/03 12:48:20;;;;;;;7.97;5.20;;;17.40;90.60;18.50;95662.00;;;;5092583;28;20567;-62
2021/11/03 12:51:16;;;;;;;6.63;4.70;;;17.80;91.30;18.20;95702.00;;;;5093845;28;20687;-63
2021/11/03 12:54:15;;;;;;;5.77;4.83;;;18.10;90.40;15.60;95701.00;;;;5106403;28;20198;-65
2021/11/03 12:57:08;;;;;;;7.20;4.30;;;17.40;88.90;15.80;95697.00;;;;5097688;28;20237;-64
2021/11/03 13:00:05;;;;;;;4.80;3.87;;;16.80;90.40;14.60;95685.00;;;;5096594;28;20202;-64
2021/11/03 13:02:59;;;;;;;5.80;3.57;;;16.30;91.30;14.30;95680.00;;;;5104140;28;20600;-64